Terminal Aerodrome Forecast
Issued by NWS

Home | Current Version | Previous Version | Text Only | Print | Product List | Glossary On
Versions: 1 2 3 4 5 6 7 8 9 10 11 12 13
000
FTUS43 KEAX 220520
TAFMKC
TAF
KMKC 220520Z 2206/2306 04012KT P6SM -SHRA SCT035 OVC070
     FM221000 03011KT P6SM VCSH BKN080
     FM221500 03012KT P6SM BKN200
     FM230000 02005KT P6SM SKC=

USA.gov is the U.S. government's official web portal to all federal, state and local government web resources and services.